sensor_id;sensor_type;location;lat;lon;timestamp;temperature;humidity
17813;DHT22;9030;50.792;8.320;2023-05-10T00:00:16;12.40;99.90
17813;DHT22;9030;50.792;8.320;2023-05-10T00:02:48;12.30;99.90
17813;DHT22;9030;50.792;8.320;2023-05-10T00:05:18;12.30;99.90
17813;DHT22;9030;50.792;8.320;2023-05-10T00:07:46;12.30;99.90
17813;DHT22;9030;50.792;8.320;2023-05-10T00:10:51;12.30;99.90
17813;DHT22;9030;50.792;8.320;2023-05-10T00:13:32;12.20;99.90
17813;DHT22;9030;50.792;8.320;2023-05-10T00:16:17;12.20;99.90
17813;DHT22;9030;50.792;8.320;2023-05-10T00:18:45;12.20;99.90
17813;DHT22;9030;50.792;8.320;2023-05-10T00:21:15;12.10;99.90
17813;DHT22;9030;50.792;8.320;2023-05-10T00:23:53;12.10;99.90
17813;DHT22;9030;50.792;8.320;2023-05-10T00:29:49;12.10;99.90
17813;DHT22;9030;50.792;8.320;2023-05-10T00:32:35;12.00;99.90
17813;DHT22;9030;50.792;8.320;2023-05-10T00:35:12;12.00;99.90
17813;DHT22;9030;50.792;8.320;2023-05-10T00:37:49;12.00;99.90
17813;DHT22;9030;50.792;8.320;2023-05-10T00:40:20;12.00;99.90
17813;DHT22;9030;50.792;8.320;2023-05-10T00:42:54;12.00;99.90
17813;DHT22;9030;50.792;8.320;2023-05-10T00:45:24;12.00;99.90
17813;DHT22;9030;50.792;8.320;2023-05-10T00:47:57;12.00;99.90
17813;DHT22;9030;50.792;8.320;2023-05-10T00:50:36;12.00;99.90
17813;DHT22;9030;50.792;8.320;2023-05-10T00:53:08;12.00;99.90
17813;DHT22;9030;50.792;8.320;2023-05-10T00:55:36;11.90;99.90
17813;DHT22;9030;50.792;8.320;2023-05-10T00:58:21;11.90;99.90
17813;DHT22;9030;50.792;8.320;2023-05-10T01:01:11;11.90;99.90
17813;DHT22;9030;50.792;8.320;2023-05-10T01:03:57;11.90;99.90
17813;DHT22;9030;50.792;8.320;2023-05-10T01:06:36;11.90;99.90
17813;DHT22;9030;50.792;8.320;2023-05-10T01:09:07;11.90;99.90
17813;DHT22;9030;50.792;8.320;2023-05-10T01:12:07;11.90;99.90
17813;DHT22;9030;50.792;8.320;2023-05-10T01:14:50;11.90;99.90
17813;DHT22;9030;50.792;8.320;2023-05-10T01:17:26;11.90;99.90
17813;DHT22;9030;50.792;8.320;2023-05-10T01:20:23;11.90;99.90
17813;DHT22;9030;50.792;8.320;2023-05-10T01:23:36;11.90;99.90
17813;DHT22;9030;50.792;8.320;2023-05-10T01:30:14;11.90;99.90
17813;DHT22;9030;50.792;8.320;2023-05-10T01:33:17;11.90;99.90
17813;DHT22;9030;50.792;8.320;2023-05-10T01:36:01;11.90;99.90
17813;DHT22;9030;50.792;8.320;2023-05-10T01:38:40;11.90;99.90
17813;DHT22;9030;50.792;8.320;2023-05-10T01:41:34;11.90;99.90
17813;DHT22;9030;50.792;8.320;2023-05-10T01:44:46;11.90;99.90
17813;DHT22;9030;50.792;8.320;2023-05-10T01:47:35;11.80;99.90
17813;DHT22;9030;50.792;8.320;2023-05-10T01:50:24;11.80;99.90
17813;DHT22;9030;50.792;8.320;2023-05-10T01:56:12;11.90;99.90
17813;DHT22;9030;50.792;8.320;2023-05-10T01:59:06;11.80;99.90
17813;DHT22;9030;50.792;8.320;2023-05-10T02:02:07;11.80;99.90
17813;DHT22;9030;50.792;8.320;2023-05-10T02:05:02;11.80;99.90
17813;DHT22;9030;50.792;8.320;2023-05-10T02:08:05;11.80;99.90
17813;DHT22;9030;50.792;8.320;2023-05-10T02:10:55;11.80;99.90
17813;DHT22;9030;50.792;8.320;2023-05-10T02:13:37;11.90;99.90
17813;DHT22;9030;50.792;8.320;2023-05-10T02:16:16;11.80;99.90
17813;DHT22;9030;50.792;8.320;2023-05-10T02:19:01;11.80;99.90
17813;DHT22;9030;50.792;8.320;2023-05-10T02:21:45;11.80;99.90
17813;DHT22;9030;50.792;8.320;2023-05-10T02:25:04;11.80;99.90
17813;DHT22;9030;50.792;8.320;2023-05-10T02:27:58;11.80;99.90
17813;DHT22;9030;50.792;8.320;2023-05-10T02:30:36;11.80;99.90
17813;DHT22;9030;50.792;8.320;2023-05-10T02:33:26;11.80;99.90
17813;DHT22;9030;50.792;8.320;2023-05-10T02:36:17;11.80;99.90
17813;DHT22;9030;50.792;8.320;2023-05-10T02:39:15;11.80;99.90
17813;DHT22;9030;50.792;8.320;2023-05-10T02:42:19;11.70;99.90
17813;DHT22;9030;50.792;8.320;2023-05-10T02:47:53;11.80;99.90
17813;DHT22;9030;50.792;8.320;2023-05-10T02:50:44;11.80;99.90
17813;DHT22;9030;50.792;8.320;2023-05-10T02:53:49;11.80;99.90
17813;DHT22;9030;50.792;8.320;2023-05-10T02:56:28;11.80;99.90
17813;DHT22;9030;50.792;8.320;2023-05-10T02:59:10;11.70;99.90
17813;DHT22;9030;50.792;8.320;2023-05-10T03:01:45;11.70;99.90
17813;DHT22;9030;50.792;8.320;2023-05-10T03:04:56;11.70;99.90
17813;DHT22;9030;50.792;8.320;2023-05-10T03:08:16;11.70;99.90
17813;DHT22;9030;50.792;8.320;2023-05-10T03:14:13;11.60;99.90
17813;DHT22;9030;50.792;8.320;2023-05-10T03:17:14;11.60;99.90
17813;DHT22;9030;50.792;8.320;2023-05-10T03:20:07;11.60;99.90
17813;DHT22;9030;50.792;8.320;2023-05-10T03:22:51;11.70;99.90
17813;DHT22;9030;50.792;8.320;2023-05-10T03:25:37;11.70;99.90
17813;DHT22;9030;50.792;8.320;2023-05-10T03:28:11;11.70;99.90
17813;DHT22;9030;50.792;8.320;2023-05-10T03:33:55;11.70;99.90
17813;DHT22;9030;50.792;8.320;2023-05-10T03:36:36;11.70;99.90
17813;DHT22;9030;50.792;8.320;2023-05-10T03:39:27;11.70;99.90
17813;DHT22;9030;50.792;8.320;2023-05-10T03:41:59;11.80;99.90
17813;DHT22;9030;50.792;8.320;2023-05-10T03:44:32;11.70;99.90
17813;DHT22;9030;50.792;8.320;2023-05-10T03:47:13;11.70;99.90
17813;DHT22;9030;50.792;8.320;2023-05-10T03:49:45;11.70;99.90
17813;DHT22;9030;50.792;8.320;2023-05-10T03:52:28;11.70;99.90
17813;DHT22;9030;50.792;8.320;2023-05-10T03:55:12;11.80;99.90
17813;DHT22;9030;50.792;8.320;2023-05-10T03:57:53;11.70;99.90
17813;DHT22;9030;50.792;8.320;2023-05-10T04:00:41;11.70;99.90
17813;DHT22;9030;50.792;8.320;2023-05-10T04:03:29;11.70;99.90
17813;DHT22;9030;50.792;8.320;2023-05-10T04:09:30;11.60;99.90
17813;DHT22;9030;50.792;8.320;2023-05-10T04:12:12;11.60;99.90
17813;DHT22;9030;50.792;8.320;2023-05-10T04:15:12;11.70;99.90
17813;DHT22;9030;50.792;8.320;2023-05-10T04:17:54;11.60;99.90
17813;DHT22;9030;50.792;8.320;2023-05-10T04:20:41;11.70;99.90
17813;DHT22;9030;50.792;8.320;2023-05-10T04:23:57;11.70;99.90
17813;DHT22;9030;50.792;8.320;2023-05-10T04:27:12;11.70;99.90
17813;DHT22;9030;50.792;8.320;2023-05-10T04:29:57;11.70;99.90
17813;DHT22;9030;50.792;8.320;2023-05-10T04:32:35;11.70;99.90
17813;DHT22;9030;50.792;8.320;2023-05-10T04:35:32;11.70;99.90
17813;DHT22;9030;50.792;8.320;2023-05-10T04:38:40;11.80;99.90
17813;DHT22;9030;50.792;8.320;2023-05-10T04:41:37;11.80;99.90
17813;DHT22;9030;50.792;8.320;2023-05-10T04:44:21;11.80;99.90
17813;DHT22;9030;50.792;8.320;2023-05-10T04:53:53;11.80;99.90
17813;DHT22;9030;50.792;8.320;2023-05-10T04:56:32;11.80;99.90
17813;DHT22;9030;50.792;8.320;2023-05-10T04:59:08;11.80;99.90
17813;DHT22;9030;50.792;8.320;2023-05-10T05:02:03;11.80;99.90
17813;DHT22;9030;50.792;8.320;2023-05-10T05:05:07;11.70;99.90
17813;DHT22;9030;50.792;8.320;2023-05-10T05:08:06;11.80;99.90
17813;DHT22;9030;50.792;8.320;2023-05-10T05:10:46;11.80;99.90
17813;DHT22;9030;50.792;8.320;2023-05-10T05:13:27;11.80;99.90
17813;DHT22;9030;50.792;8.320;2023-05-10T05:16:20;11.80;99.90
17813;DHT22;9030;50.792;8.320;2023-05-10T05:19:05;11.90;99.90
17813;DHT22;9030;50.792;8.320;2023-05-10T05:21:32;11.90;99.90
17813;DHT22;9030;50.792;8.320;2023-05-10T05:24:12;11.90;99.90
17813;DHT22;9030;50.792;8.320;2023-05-10T05:26:58;11.90;99.90
17813;DHT22;9030;50.792;8.320;2023-05-10T05:29:31;11.90;99.90
17813;DHT22;9030;50.792;8.320;2023-05-10T05:31:59;11.90;99.90
17813;DHT22;9030;50.792;8.320;2023-05-10T05:34:29;11.90;99.90
17813;DHT22;9030;50.792;8.320;2023-05-10T05:37:14;11.90;99.90
17813;DHT22;9030;50.792;8.320;2023-05-10T05:39:44;11.90;99.90
17813;DHT22;9030;50.792;8.320;2023-05-10T05:42:39;12.00;99.90
17813;DHT22;9030;50.792;8.320;2023-05-10T05:45:18;12.00;99.90
17813;DHT22;9030;50.792;8.320;2023-05-10T05:47:46;12.10;99.90
17813;DHT22;9030;50.792;8.320;2023-05-10T05:50:14;12.10;99.90
17813;DHT22;9030;50.792;8.320;2023-05-10T05:52:44;12.10;99.90
17813;DHT22;9030;50.792;8.320;2023-05-10T05:55:13;12.10;99.90
17813;DHT22;9030;50.792;8.320;2023-05-10T05:57:43;12.10;99.90
17813;DHT22;9030;50.792;8.320;2023-05-10T06:00:12;12.10;99.90
17813;DHT22;9030;50.792;8.320;2023-05-10T06:02:42;12.10;99.90
17813;DHT22;9030;50.792;8.320;2023-05-10T06:05:17;12.20;99.90
17813;DHT22;9030;50.792;8.320;2023-05-10T06:07:51;12.20;99.90
17813;DHT22;9030;50.792;8.320;2023-05-10T06:10:38;12.30;99.90
17813;DHT22;9030;50.792;8.320;2023-05-10T06:13:14;12.40;99.90
17813;DHT22;9030;50.792;8.320;2023-05-10T06:15:43;12.50;99.90
17813;DHT22;9030;50.792;8.320;2023-05-10T06:18:13;12.50;99.90
17813;DHT22;9030;50.792;8.320;2023-05-10T06:20:45;12.50;99.90
17813;DHT22;9030;50.792;8.320;2023-05-10T06:23:20;12.50;99.90
17813;DHT22;9030;50.792;8.320;2023-05-10T06:25:49;12.50;99.90
17813;DHT22;9030;50.792;8.320;2023-05-10T06:28:22;12.60;99.90
17813;DHT22;9030;50.792;8.320;2023-05-10T06:30:57;12.70;99.90
17813;DHT22;9030;50.792;8.320;2023-05-10T06:33:34;12.90;99.90
17813;DHT22;9030;50.792;8.320;2023-05-10T06:36:01;13.10;99.90
17813;DHT22;9030;50.792;8.320;2023-05-10T06:38:35;13.10;99.90
17813;DHT22;9030;50.792;8.320;2023-05-10T06:41:05;13.30;99.90
17813;DHT22;9030;50.792;8.320;2023-05-10T06:43:36;13.30;99.90
17813;DHT22;9030;50.792;8.320;2023-05-10T06:46:07;13.20;99.90
17813;DHT22;9030;50.792;8.320;2023-05-10T06:48:35;13.30;99.90
17813;DHT22;9030;50.792;8.320;2023-05-10T06:51:05;13.40;99.90
17813;DHT22;9030;50.792;8.320;2023-05-10T06:53:32;13.40;99.90
17813;DHT22;9030;50.792;8.320;2023-05-10T06:56:03;13.60;99.90
17813;DHT22;9030;50.792;8.320;2023-05-10T06:58:30;13.70;99.90
17813;DHT22;9030;50.792;8.320;2023-05-10T07:01:03;13.80;99.90
17813;DHT22;9030;50.792;8.320;2023-05-10T07:03:31;13.80;99.90
17813;DHT22;9030;50.792;8.320;2023-05-10T07:06:01;13.80;99.90
17813;DHT22;9030;50.792;8.320;2023-05-10T07:08:30;13.90;99.90
17813;DHT22;9030;50.792;8.320;2023-05-10T07:11:01;13.90;99.90
17813;DHT22;9030;50.792;8.320;2023-05-10T07:13:29;14.00;99.90
17813;DHT22;9030;50.792;8.320;2023-05-10T07:15:57;14.00;99.90
17813;DHT22;9030;50.792;8.320;2023-05-10T07:18:25;14.10;99.90
17813;DHT22;9030;50.792;8.320;2023-05-10T07:20:52;14.30;99.90
17813;DHT22;9030;50.792;8.320;2023-05-10T07:23:20;14.50;99.90
17813;DHT22;9030;50.792;8.320;2023-05-10T07:25:47;14.80;99.90
17813;DHT22;9030;50.792;8.320;2023-05-10T07:28:14;15.00;99.90
17813;DHT22;9030;50.792;8.320;2023-05-10T07:30:47;14.90;99.90
17813;DHT22;9030;50.792;8.320;2023-05-10T07:33:14;14.60;99.90
17813;DHT22;9030;50.792;8.320;2023-05-10T07:35:43;14.40;99.90
17813;DHT22;9030;50.792;8.320;2023-05-10T07:38:11;14.30;99.90
17813;DHT22;9030;50.792;8.320;2023-05-10T07:40:39;14.30;99.90
17813;DHT22;9030;50.792;8.320;2023-05-10T07:43:06;14.20;99.90
17813;DHT22;9030;50.792;8.320;2023-05-10T07:45:33;14.30;99.90
17813;DHT22;9030;50.792;8.320;2023-05-10T07:48:00;14.50;99.90
17813;DHT22;9030;50.792;8.320;2023-05-10T07:50:27;14.50;99.90
17813;DHT22;9030;50.792;8.320;2023-05-10T07:52:56;14.50;99.90
17813;DHT22;9030;50.792;8.320;2023-05-10T07:55:23;14.50;99.90
17813;DHT22;9030;50.792;8.320;2023-05-10T07:57:52;14.50;99.90
17813;DHT22;9030;50.792;8.320;2023-05-10T08:00:20;14.60;99.90
17813;DHT22;9030;50.792;8.320;2023-05-10T08:02:47;14.80;99.90
17813;DHT22;9030;50.792;8.320;2023-05-10T08:05:14;15.00;99.90
17813;DHT22;9030;50.792;8.320;2023-05-10T08:07:41;15.00;99.90
17813;DHT22;9030;50.792;8.320;2023-05-10T08:10:10;15.10;99.90
17813;DHT22;9030;50.792;8.320;2023-05-10T08:12:37;15.00;99.90
17813;DHT22;9030;50.792;8.320;2023-05-10T08:15:05;15.10;99.90
17813;DHT22;9030;50.792;8.320;2023-05-10T08:17:32;15.30;99.90
17813;DHT22;9030;50.792;8.320;2023-05-10T08:20:00;15.30;99.90
17813;DHT22;9030;50.792;8.320;2023-05-10T08:22:27;15.40;99.90
17813;DHT22;9030;50.792;8.320;2023-05-10T08:24:54;15.30;99.90
17813;DHT22;9030;50.792;8.320;2023-05-10T08:27:22;15.50;99.90
17813;DHT22;9030;50.792;8.320;2023-05-10T08:29:49;15.20;99.90
17813;DHT22;9030;50.792;8.320;2023-05-10T08:32:16;14.90;99.90
17813;DHT22;9030;50.792;8.320;2023-05-10T08:34:43;14.80;99.90
17813;DHT22;9030;50.792;8.320;2023-05-10T08:37:10;14.70;99.90
17813;DHT22;9030;50.792;8.320;2023-05-10T08:39:38;14.60;99.90
17813;DHT22;9030;50.792;8.320;2023-05-10T08:42:06;14.50;99.90
17813;DHT22;9030;50.792;8.320;2023-05-10T08:44:36;14.40;99.90
17813;DHT22;9030;50.792;8.320;2023-05-10T08:47:05;14.30;99.90
17813;DHT22;9030;50.792;8.320;2023-05-10T08:49:33;14.10;99.90
17813;DHT22;9030;50.792;8.320;2023-05-10T08:52:02;14.10;99.90
17813;DHT22;9030;50.792;8.320;2023-05-10T08:54:30;14.20;99.90
17813;DHT22;9030;50.792;8.320;2023-05-10T08:56:58;14.20;99.90
17813;DHT22;9030;50.792;8.320;2023-05-10T08:59:25;14.50;99.90
17813;DHT22;9030;50.792;8.320;2023-05-10T09:01:54;14.50;99.90
17813;DHT22;9030;50.792;8.320;2023-05-10T09:04:23;14.50;99.90
17813;DHT22;9030;50.792;8.320;2023-05-10T09:06:54;14.30;99.90
17813;DHT22;9030;50.792;8.320;2023-05-10T09:09:21;14.20;99.90
17813;DHT22;9030;50.792;8.320;2023-05-10T09:11:50;14.20;99.90
17813;DHT22;9030;50.792;8.320;2023-05-10T09:14:18;14.20;99.90
17813;DHT22;9030;50.792;8.320;2023-05-10T09:16:47;14.30;99.90
17813;DHT22;9030;50.792;8.320;2023-05-10T09:19:15;14.50;99.90
17813;DHT22;9030;50.792;8.320;2023-05-10T09:21:42;14.80;99.90
17813;DHT22;9030;50.792;8.320;2023-05-10T09:24:10;15.10;99.90
17813;DHT22;9030;50.792;8.320;2023-05-10T09:26:45;15.10;99.90
17813;DHT22;9030;50.792;8.320;2023-05-10T09:29:13;15.00;99.90
17813;DHT22;9030;50.792;8.320;2023-05-10T09:31:44;15.00;99.90
17813;DHT22;9030;50.792;8.320;2023-05-10T09:34:17;15.40;99.90
17813;DHT22;9030;50.792;8.320;2023-05-10T09:36:51;15.60;99.90
17813;DHT22;9030;50.792;8.320;2023-05-10T09:39:19;15.90;99.90
17813;DHT22;9030;50.792;8.320;2023-05-10T09:41:46;16.30;99.90
17813;DHT22;9030;50.792;8.320;2023-05-10T09:44:16;16.30;99.90
17813;DHT22;9030;50.792;8.320;2023-05-10T09:46:50;16.30;99.90
17813;DHT22;9030;50.792;8.320;2023-05-10T09:49:20;16.20;99.90
17813;DHT22;9030;50.792;8.320;2023-05-10T09:51:47;16.00;99.90
17813;DHT22;9030;50.792;8.320;2023-05-10T09:54:15;16.00;99.90
17813;DHT22;9030;50.792;8.320;2023-05-10T09:56:42;16.10;99.90
17813;DHT22;9030;50.792;8.320;2023-05-10T09:59:11;16.30;99.90
17813;DHT22;9030;50.792;8.320;2023-05-10T10:01:38;16.50;99.90
17813;DHT22;9030;50.792;8.320;2023-05-10T10:04:07;16.60;99.90
17813;DHT22;9030;50.792;8.320;2023-05-10T10:06:39;16.90;99.90
17813;DHT22;9030;50.792;8.320;2023-05-10T10:09:06;17.00;99.90
17813;DHT22;9030;50.792;8.320;2023-05-10T10:11:34;16.80;99.90
17813;DHT22;9030;50.792;8.320;2023-05-10T10:14:01;16.70;99.90
17813;DHT22;9030;50.792;8.320;2023-05-10T10:16:29;16.60;99.90
17813;DHT22;9030;50.792;8.320;2023-05-10T10:18:56;16.40;99.90
17813;DHT22;9030;50.792;8.320;2023-05-10T10:21:23;16.00;99.90
17813;DHT22;9030;50.792;8.320;2023-05-10T10:23:52;15.80;99.90
17813;DHT22;9030;50.792;8.320;2023-05-10T10:26:19;15.30;99.90
17813;DHT22;9030;50.792;8.320;2023-05-10T10:28:51;15.00;99.90
17813;DHT22;9030;50.792;8.320;2023-05-10T10:31:27;14.80;99.90
17813;DHT22;9030;50.792;8.320;2023-05-10T10:34:04;14.80;99.90
17813;DHT22;9030;50.792;8.320;2023-05-10T10:36:33;14.70;99.90
17813;DHT22;9030;50.792;8.320;2023-05-10T10:39:10;14.50;99.90
17813;DHT22;9030;50.792;8.320;2023-05-10T10:41:50;14.60;99.90
17813;DHT22;9030;50.792;8.320;2023-05-10T10:44:24;14.70;99.90
17813;DHT22;9030;50.792;8.320;2023-05-10T10:47:10;14.60;99.90
17813;DHT22;9030;50.792;8.320;2023-05-10T10:49:51;14.60;99.90
17813;DHT22;9030;50.792;8.320;2023-05-10T10:52:23;14.80;99.90
17813;DHT22;9030;50.792;8.320;2023-05-10T10:54:59;14.80;99.90
17813;DHT22;9030;50.792;8.320;2023-05-10T10:57:33;14.70;99.90
17813;DHT22;9030;50.792;8.320;2023-05-10T11:00:28;14.70;99.90
17813;DHT22;9030;50.792;8.320;2023-05-10T11:02:58;14.80;99.90
17813;DHT22;9030;50.792;8.320;2023-05-10T11:05:36;14.90;99.90
17813;DHT22;9030;50.792;8.320;2023-05-10T11:08:17;15.10;99.90
17813;DHT22;9030;50.792;8.320;2023-05-10T11:11:01;15.20;99.90
17813;DHT22;9030;50.792;8.320;2023-05-10T11:13:29;15.40;99.90
17813;DHT22;9030;50.792;8.320;2023-05-10T11:15:59;15.30;99.90
17813;DHT22;9030;50.792;8.320;2023-05-10T11:18:36;15.10;99.90
17813;DHT22;9030;50.792;8.320;2023-05-10T11:21:03;14.90;99.90
17813;DHT22;9030;50.792;8.320;2023-05-10T11:23:32;15.00;99.90
17813;DHT22;9030;50.792;8.320;2023-05-10T11:26:00;15.10;99.90
17813;DHT22;9030;50.792;8.320;2023-05-10T11:28:27;15.00;99.90
17813;DHT22;9030;50.792;8.320;2023-05-10T11:30:54;15.20;99.90
17813;DHT22;9030;50.792;8.320;2023-05-10T11:33:44;15.10;99.90
17813;DHT22;9030;50.792;8.320;2023-05-10T11:36:13;14.80;99.90
17813;DHT22;9030;50.792;8.320;2023-05-10T11:39:07;14.70;99.90
17813;DHT22;9030;50.792;8.320;2023-05-10T11:41:37;14.50;99.90
17813;DHT22;9030;50.792;8.320;2023-05-10T11:44:21;14.50;99.90
17813;DHT22;9030;50.792;8.320;2023-05-10T11:46:58;14.50;99.90
17813;DHT22;9030;50.792;8.320;2023-05-10T11:49:26;14.50;99.90
17813;DHT22;9030;50.792;8.320;2023-05-10T11:52:03;14.70;99.90
17813;DHT22;9030;50.792;8.320;2023-05-10T11:54:31;14.70;99.90
17813;DHT22;9030;50.792;8.320;2023-05-10T11:57:01;14.80;99.90
17813;DHT22;9030;50.792;8.320;2023-05-10T11:59:29;15.00;99.90
17813;DHT22;9030;50.792;8.320;2023-05-10T12:01:58;15.10;99.90
17813;DHT22;9030;50.792;8.320;2023-05-10T12:04:28;15.20;99.90
17813;DHT22;9030;50.792;8.320;2023-05-10T12:06:56;15.30;99.90
17813;DHT22;9030;50.792;8.320;2023-05-10T12:09:24;15.20;99.90
17813;DHT22;9030;50.792;8.320;2023-05-10T12:11:55;15.20;99.90
17813;DHT22;9030;50.792;8.320;2023-05-10T12:14:24;15.10;99.90
17813;DHT22;9030;50.792;8.320;2023-05-10T12:16:51;15.30;99.90
17813;DHT22;9030;50.792;8.320;2023-05-10T12:19:19;15.40;99.90
17813;DHT22;9030;50.792;8.320;2023-05-10T12:21:47;15.60;99.90
17813;DHT22;9030;50.792;8.320;2023-05-10T12:24:14;15.70;99.90
17813;DHT22;9030;50.792;8.320;2023-05-10T12:26:44;15.80;99.90
17813;DHT22;9030;50.792;8.320;2023-05-10T12:29:12;15.90;99.90
17813;DHT22;9030;50.792;8.320;2023-05-10T12:31:56;15.90;99.90
17813;DHT22;9030;50.792;8.320;2023-05-10T12:34:24;15.90;99.90
17813;DHT22;9030;50.792;8.320;2023-05-10T12:36:55;15.70;99.90
17813;DHT22;9030;50.792;8.320;2023-05-10T12:39:24;15.80;99.90
17813;DHT22;9030;50.792;8.320;2023-05-10T12:41:51;15.70;99.90
17813;DHT22;9030;50.792;8.320;2023-05-10T12:44:18;15.50;99.90
17813;DHT22;9030;50.792;8.320;2023-05-10T12:46:47;15.70;99.90
17813;DHT22;9030;50.792;8.320;2023-05-10T12:49:16;15.70;99.90
17813;DHT22;9030;50.792;8.320;2023-05-10T12:51:44;15.60;99.90
17813;DHT22;9030;50.792;8.320;2023-05-10T12:54:11;15.50;99.90
17813;DHT22;9030;50.792;8.320;2023-05-10T12:56:38;15.60;99.90
17813;DHT22;9030;50.792;8.320;2023-05-10T12:59:06;15.70;99.90
17813;DHT22;9030;50.792;8.320;2023-05-10T13:01:33;15.60;99.90
17813;DHT22;9030;50.792;8.320;2023-05-10T13:04:00;15.90;99.90
17813;DHT22;9030;50.792;8.320;2023-05-10T13:06:28;15.90;99.90
17813;DHT22;9030;50.792;8.320;2023-05-10T13:08:56;15.50;99.90
17813;DHT22;9030;50.792;8.320;2023-05-10T13:11:23;15.10;99.90
17813;DHT22;9030;50.792;8.320;2023-05-10T13:13:59;15.20;99.90
17813;DHT22;9030;50.792;8.320;2023-05-10T13:16:28;15.60;99.90
17813;DHT22;9030;50.792;8.320;2023-05-10T13:18:55;16.00;99.90
17813;DHT22;9030;50.792;8.320;2023-05-10T13:21:22;16.10;99.90
17813;DHT22;9030;50.792;8.320;2023-05-10T13:23:52;16.10;99.90
17813;DHT22;9030;50.792;8.320;2023-05-10T13:26:19;15.70;99.90
17813;DHT22;9030;50.792;8.320;2023-05-10T13:28:46;15.40;99.90
17813;DHT22;9030;50.792;8.320;2023-05-10T13:31:22;15.20;99.90
17813;DHT22;9030;50.792;8.320;2023-05-10T13:33:48;15.50;99.90
17813;DHT22;9030;50.792;8.320;2023-05-10T13:36:16;15.80;99.90
17813;DHT22;9030;50.792;8.320;2023-05-10T13:38:45;16.30;99.90
17813;DHT22;9030;50.792;8.320;2023-05-10T13:41:13;16.50;99.90
17813;DHT22;9030;50.792;8.320;2023-05-10T13:43:40;16.70;99.90
17813;DHT22;9030;50.792;8.320;2023-05-10T13:46:07;17.20;99.90
17813;DHT22;9030;50.792;8.320;2023-05-10T13:48:34;17.10;99.90
17813;DHT22;9030;50.792;8.320;2023-05-10T13:51:02;17.00;99.90
17813;DHT22;9030;50.792;8.320;2023-05-10T13:53:29;17.10;99.90
17813;DHT22;9030;50.792;8.320;2023-05-10T13:55:56;17.20;99.90
17813;DHT22;9030;50.792;8.320;2023-05-10T13:58:24;17.40;99.90
17813;DHT22;9030;50.792;8.320;2023-05-10T14:00:52;17.40;99.90
17813;DHT22;9030;50.792;8.320;2023-05-10T14:03:20;16.90;99.90
17813;DHT22;9030;50.792;8.320;2023-05-10T14:05:46;16.40;99.90
17813;DHT22;9030;50.792;8.320;2023-05-10T14:08:13;16.10;99.90
17813;DHT22;9030;50.792;8.320;2023-05-10T14:10:41;16.00;99.90
17813;DHT22;9030;50.792;8.320;2023-05-10T14:13:08;15.80;99.90
17813;DHT22;9030;50.792;8.320;2023-05-10T14:15:36;15.70;99.90
17813;DHT22;9030;50.792;8.320;2023-05-10T14:18:03;15.60;99.90
17813;DHT22;9030;50.792;8.320;2023-05-10T14:20:30;15.20;99.90
17813;DHT22;9030;50.792;8.320;2023-05-10T14:22:59;14.90;99.90
17813;DHT22;9030;50.792;8.320;2023-05-10T14:25:28;14.80;99.90
17813;DHT22;9030;50.792;8.320;2023-05-10T14:27:54;14.90;99.90
17813;DHT22;9030;50.792;8.320;2023-05-10T14:30:21;14.80;99.90
17813;DHT22;9030;50.792;8.320;2023-05-10T14:32:49;14.90;99.90
17813;DHT22;9030;50.792;8.320;2023-05-10T14:35:16;14.90;99.90
17813;DHT22;9030;50.792;8.320;2023-05-10T14:37:53;14.90;99.90
17813;DHT22;9030;50.792;8.320;2023-05-10T14:40:20;15.00;99.90
17813;DHT22;9030;50.792;8.320;2023-05-10T14:42:46;15.00;99.90
17813;DHT22;9030;50.792;8.320;2023-05-10T14:45:13;15.00;99.90
17813;DHT22;9030;50.792;8.320;2023-05-10T14:47:40;15.20;99.90
17813;DHT22;9030;50.792;8.320;2023-05-10T14:50:09;15.50;99.90
17813;DHT22;9030;50.792;8.320;2023-05-10T14:52:36;15.70;99.90
17813;DHT22;9030;50.792;8.320;2023-05-10T14:55:03;15.60;99.90
17813;DHT22;9030;50.792;8.320;2023-05-10T14:57:30;15.70;99.90
17813;DHT22;9030;50.792;8.320;2023-05-10T14:59:57;15.70;99.90
17813;DHT22;9030;50.792;8.320;2023-05-10T15:02:24;15.70;99.90
17813;DHT22;9030;50.792;8.320;2023-05-10T15:04:52;15.80;99.90
17813;DHT22;9030;50.792;8.320;2023-05-10T15:07:20;15.80;99.90
17813;DHT22;9030;50.792;8.320;2023-05-10T15:09:48;15.80;99.90
17813;DHT22;9030;50.792;8.320;2023-05-10T15:12:15;15.80;99.90
17813;DHT22;9030;50.792;8.320;2023-05-10T15:14:41;15.70;99.90
17813;DHT22;9030;50.792;8.320;2023-05-10T15:17:08;15.70;99.90
17813;DHT22;9030;50.792;8.320;2023-05-10T15:19:35;15.80;99.90
17813;DHT22;9030;50.792;8.320;2023-05-10T15:22:03;15.70;99.90
17813;DHT22;9030;50.792;8.320;2023-05-10T15:24:32;15.80;99.90
17813;DHT22;9030;50.792;8.320;2023-05-10T15:26:58;16.00;99.90
17813;DHT22;9030;50.792;8.320;2023-05-10T15:29:25;16.00;99.90
17813;DHT22;9030;50.792;8.320;2023-05-10T15:31:56;16.00;99.90
17813;DHT22;9030;50.792;8.320;2023-05-10T15:34:23;15.90;99.90
17813;DHT22;9030;50.792;8.320;2023-05-10T15:36:49;15.90;99.90
17813;DHT22;9030;50.792;8.320;2023-05-10T15:39:16;15.70;99.90
17813;DHT22;9030;50.792;8.320;2023-05-10T15:41:44;15.90;99.90
17813;DHT22;9030;50.792;8.320;2023-05-10T15:44:12;16.00;99.90
17813;DHT22;9030;50.792;8.320;2023-05-10T15:46:39;16.20;99.90
17813;DHT22;9030;50.792;8.320;2023-05-10T15:49:07;16.40;99.90
17813;DHT22;9030;50.792;8.320;2023-05-10T15:51:34;16.30;99.90
17813;DHT22;9030;50.792;8.320;2023-05-10T15:54:00;16.30;99.90
17813;DHT22;9030;50.792;8.320;2023-05-10T15:56:28;16.30;99.90
17813;DHT22;9030;50.792;8.320;2023-05-10T15:58:56;16.20;99.90
17813;DHT22;9030;50.792;8.320;2023-05-10T16:01:23;16.20;99.90
17813;DHT22;9030;50.792;8.320;2023-05-10T16:03:50;16.40;99.90
17813;DHT22;9030;50.792;8.320;2023-05-10T16:06:16;16.70;99.90
17813;DHT22;9030;50.792;8.320;2023-05-10T16:08:43;16.80;99.90
17813;DHT22;9030;50.792;8.320;2023-05-10T16:11:10;16.80;99.90
17813;DHT22;9030;50.792;8.320;2023-05-10T16:13:37;16.90;99.90
17813;DHT22;9030;50.792;8.320;2023-05-10T16:16:06;16.80;99.90
17813;DHT22;9030;50.792;8.320;2023-05-10T16:18:33;16.70;99.90
17813;DHT22;9030;50.792;8.320;2023-05-10T16:21:00;16.60;99.90
17813;DHT22;9030;50.792;8.320;2023-05-10T16:23:27;16.40;99.90
17813;DHT22;9030;50.792;8.320;2023-05-10T16:25:54;16.20;99.90
17813;DHT22;9030;50.792;8.320;2023-05-10T16:28:21;16.30;99.90
17813;DHT22;9030;50.792;8.320;2023-05-10T16:30:48;16.50;99.90
17813;DHT22;9030;50.792;8.320;2023-05-10T16:33:17;16.50;99.90
17813;DHT22;9030;50.792;8.320;2023-05-10T16:35:43;16.50;99.90
17813;DHT22;9030;50.792;8.320;2023-05-10T16:38:10;16.60;99.90
17813;DHT22;9030;50.792;8.320;2023-05-10T16:40:37;16.60;99.90
17813;DHT22;9030;50.792;8.320;2023-05-10T16:43:03;16.50;99.90
17813;DHT22;9030;50.792;8.320;2023-05-10T16:45:30;16.40;99.90
17813;DHT22;9030;50.792;8.320;2023-05-10T16:47:57;16.40;99.90
17813;DHT22;9030;50.792;8.320;2023-05-10T16:50:25;16.40;99.90
17813;DHT22;9030;50.792;8.320;2023-05-10T16:52:52;16.30;99.90
17813;DHT22;9030;50.792;8.320;2023-05-10T16:55:19;16.40;99.90
17813;DHT22;9030;50.792;8.320;2023-05-10T16:57:46;16.30;99.90